Time;durP1;ratioP1;P1;durP2;ratioP2;P2;SDS_P1;SDS_P2;PMS_P1;PMS_P2;Temp;Humidity;BMP_temperature;BMP_pressure;BME280_temperature;BME280_humidity;BME280_pressure;Samples;Min_cycle;Max_cycle;Signal;HPM_P1;HPM_P2
2023/01/24 03:36:06;;;;;;;9.07;5.95;;;12.10;58.00;;;;;;4864033;29;20082;-75
2023/01/24 03:41:16;;;;;;;12.25;6.25;;;12.10;57.30;;;;;;4865570;29;20046;-75
2023/01/24 03:43:45;;;;;;;7.88;5.90;;;12.10;57.10;;;;;;4865527;29;20056;-80
2023/01/24 03:46:11;;;;;;;10.45;5.95;;;12.10;56.90;;;;;;4861602;29;20097;-71
2023/01/24 03:48:37;;;;;;;10.13;6.10;;;12.10;56.70;;;;;;4861377;29;20487;-77
2023/01/24 03:53:48;;;;;;;10.25;6.40;;;12.10;56.70;;;;;;4862934;29;20041;-74
2023/01/24 03:56:14;;;;;;;10.63;6.10;;;12.10;56.50;;;;;;4865529;29;20033;-76
2023/01/24 03:58:39;;;;;;;11.13;6.80;;;12.10;56.40;;;;;;4863974;29;20326;-74
2023/01/24 04:01:08;;;;;;;8.80;7.40;;;12.00;56.10;;;;;;4864875;29;20045;-79
2023/01/24 04:03:34;;;;;;;9.02;7.47;;;12.00;55.50;;;;;;4864906;29;20056;-76
2023/01/24 04:06:00;;;;;;;10.07;7.05;;;12.00;55.00;;;;;;4865171;29;20037;-75
2023/01/24 04:08:26;;;;;;;10.43;8.02;;;12.00;54.50;;;;;;4848800;29;20487;-75
2023/01/24 04:10:51;;;;;;;9.30;7.70;;;11.90;54.10;;;;;;4865106;29;20045;-77
2023/01/24 04:13:17;;;;;;;9.98;8.18;;;11.90;54.00;;;;;;4865022;29;20087;-75
2023/01/24 04:15:44;;;;;;;7.70;6.90;;;11.90;53.90;;;;;;4864344;29;20065;-73
2023/01/24 04:18:11;;;;;;;9.93;7.80;;;11.80;53.80;;;;;;4864009;29;20100;-75
2023/01/24 04:20:37;;;;;;;9.32;7.03;;;11.80;53.90;;;;;;4864757;29;20041;-73
2023/01/24 04:23:04;;;;;;;10.55;7.60;;;11.80;53.80;;;;;;4865038;29;20140;-75
2023/01/24 04:25:30;;;;;;;8.10;7.25;;;11.70;53.60;;;;;;4864498;29;20352;-74
2023/01/24 04:27:56;;;;;;;8.93;6.68;;;11.70;53.60;;;;;;4865271;29;20113;-77
2023/01/24 04:30:22;;;;;;;8.95;7.05;;;11.70;53.70;;;;;;4864654;29;20485;-76
2023/01/24 04:32:48;;;;;;;10.93;6.97;;;11.60;53.50;;;;;;4853803;29;20369;-74
2023/01/24 04:35:22;;;;;;;9.70;6.65;;;11.60;53.70;;;;;;4846603;29;20042;-76
2023/01/24 04:37:48;;;;;;;11.18;5.88;;;11.60;54.30;;;;;;4846327;29;20496;-78
2023/01/24 04:40:14;;;;;;;10.30;6.50;;;11.60;54.60;;;;;;4846603;29;20034;-76
2023/01/24 04:42:41;;;;;;;10.13;5.43;;;11.70;55.00;;;;;;4845323;29;20038;-75
2023/01/24 04:45:08;;;;;;;12.80;4.80;;;11.90;55.60;;;;;;4851573;29;20105;-77
2023/01/24 04:47:34;;;;;;;14.15;4.50;;;12.10;55.60;;;;;;4864702;29;20050;-79
2023/01/24 04:50:00;;;;;;;16.13;4.75;;;12.20;55.60;;;;;;4853847;29;20050;-78
2023/01/24 04:52:25;;;;;;;10.48;3.75;;;12.40;55.70;;;;;;4880790;29;20076;-75
2023/01/24 04:54:51;;;;;;;6.93;3.33;;;12.60;55.60;;;;;;4875996;29;20049;-77
2023/01/24 04:57:18;;;;;;;11.50;3.78;;;12.70;55.50;;;;;;4864106;29;20093;-76
2023/01/24 04:59:44;;;;;;;6.70;3.30;;;12.80;55.50;;;;;;4860598;29;20064;-77
2023/01/24 05:02:10;;;;;;;7.32;3.65;;;12.90;55.50;;;;;;4847634;29;20046;-76
2023/01/24 05:04:36;;;;;;;4.10;2.88;;;13.00;55.50;;;;;;4863180;29;20052;-76
2023/01/24 05:07:03;;;;;;;9.40;3.40;;;13.10;55.60;;;;;;4862201;29;20112;-74
2023/01/24 05:09:29;;;;;;;6.45;2.95;;;13.10;55.90;;;;;;4863481;29;20119;-79
2023/01/24 05:11:54;;;;;;;7.03;3.22;;;13.20;56.00;;;;;;4866341;29;20128;-74
2023/01/24 05:14:20;;;;;;;7.13;2.85;;;13.30;56.10;;;;;;4864520;29;20076;-72
2023/01/24 05:16:46;;;;;;;6.05;3.20;;;13.40;55.20;;;;;;4863447;29;20089;-75
2023/01/24 05:19:11;;;;;;;4.40;2.53;;;13.40;56.70;;;;;;4863559;29;20049;-79
2023/01/24 05:21:37;;;;;;;7.03;2.75;;;13.50;56.50;;;;;;4864552;29;20041;-76
2023/01/24 05:24:03;;;;;;;5.15;2.55;;;13.60;56.40;;;;;;4855037;29;20049;-82
2023/01/24 05:26:29;;;;;;;3.55;2.50;;;13.70;56.30;;;;;;4845733;29;20046;-74
2023/01/24 05:28:54;;;;;;;3.67;2.47;;;13.80;56.30;;;;;;4845599;29;20057;-76
2023/01/24 05:31:21;;;;;;;5.85;2.25;;;13.90;56.20;;;;;;4860609;29;20148;-75
2023/01/24 05:33:47;;;;;;;6.82;2.88;;;13.90;56.40;;;;;;4863553;29;20526;-73
2023/01/24 05:36:15;;;;;;;9.20;2.35;;;14.00;56.50;;;;;;4862965;29;20056;-75
2023/01/24 05:38:42;;;;;;;6.05;4.10;;;14.00;56.80;;;;;;4864083;29;20057;-72
2023/01/24 05:41:10;;;;;;;5.78;2.67;;;13.60;54.90;;;;;;4866570;29;20045;-76
2023/01/24 05:43:37;;;;;;;5.80;3.05;;;13.50;58.00;;;;;;4880416;29;20052;-72
2023/01/24 05:46:06;;;;;;;6.63;2.60;;;13.60;58.30;;;;;;4866667;29;20053;-77
2023/01/24 05:48:32;;;;;;;8.10;2.83;;;13.80;58.10;;;;;;4881629;29;20096;-77
2023/01/24 05:51:02;;;;;;;9.27;3.45;;;13.90;57.90;;;;;;4882535;29;20061;-74
2023/01/24 05:53:30;;;;;;;14.18;2.83;;;14.10;57.90;;;;;;4882600;29;20132;-75
2023/01/24 05:56:01;;;;;;;8.98;2.83;;;14.20;58.40;;;;;;4882395;29;20197;-74
2023/01/24 05:58:29;;;;;;;14.15;3.33;;;14.30;59.10;;;;;;4881854;29;20127;-74
2023/01/24 06:00:55;;;;;;;13.15;3.10;;;14.30;59.40;;;;;;4865421;29;20092;-73
2023/01/24 06:03:21;;;;;;;14.88;3.30;;;14.40;59.90;;;;;;4863625;29;20070;-76
2023/01/24 06:05:52;;;;;;;16.27;3.05;;;14.40;60.20;;;;;;4863706;29;20049;-76
2023/01/24 06:08:20;;;;;;;7.82;2.47;;;14.40;60.60;;;;;;4863824;29;20124;-75
2023/01/24 06:10:46;;;;;;;15.38;3.35;;;14.50;60.40;;;;;;4863751;29;20376;-75
2023/01/24 06:13:12;;;;;;;9.18;2.65;;;14.60;60.60;;;;;;4862769;29;20377;-76
2023/01/24 06:15:39;;;;;;;7.70;2.63;;;14.70;60.50;;;;;;4876573;29;20049;-76
2023/01/24 06:18:14;;;;;;;9.65;3.05;;;14.70;60.50;;;;;;4865087;29;20487;-79
2023/01/24 06:20:40;;;;;;;20.65;5.07;;;14.70;60.40;;;;;;4861887;29;20041;-76
2023/01/24 06:23:09;;;;;;;30.17;5.72;;;14.70;59.20;;;;;;4866629;29;20046;-79
2023/01/24 06:25:35;;;;;;;28.30;4.53;;;14.70;59.00;;;;;;4878786;29;20072;-75
2023/01/24 06:28:02;;;;;;;16.25;4.05;;;14.70;59.10;;;;;;4877298;29;20103;-77
2023/01/24 06:30:28;;;;;;;25.38;3.90;;;14.70;59.10;;;;;;4868354;29;20129;-75
2023/01/24 06:33:31;;;;;;;15.82;4.13;;;14.80;59.10;;;;;;4864159;29;20057;-79
2023/01/24 06:36:14;;;;;;;13.07;3.33;;;14.80;59.30;;;;;;4842594;29;20064;-77
2023/01/24 06:38:40;;;;;;;23.35;3.53;;;14.80;59.30;;;;;;4878400;29;20053;-77
2023/01/24 06:41:16;;;;;;;14.48;3.80;;;14.80;59.40;;;;;;4881625;29;20368;-76
2023/01/24 06:43:43;;;;;;;9.43;3.20;;;14.80;59.50;;;;;;4874732;29;20037;-77
2023/01/24 06:46:10;;;;;;;10.55;3.15;;;14.90;59.10;;;;;;4869248;29;20082;-76
2023/01/24 06:48:35;;;;;;;13.43;3.85;;;14.90;59.10;;;;;;4870921;29;20044;-76
2023/01/24 06:51:01;;;;;;;15.38;3.35;;;14.90;59.30;;;;;;4881686;29;20051;-78
2023/01/24 06:53:27;;;;;;;11.93;3.53;;;14.80;59.50;;;;;;4870017;29;20049;-74
2023/01/24 06:55:52;;;;;;;23.52;4.97;;;14.80;59.60;;;;;;4862467;29;20368;-76
2023/01/24 06:58:18;;;;;;;20.15;4.47;;;14.80;60.00;;;;;;4862727;29;20047;-75
2023/01/24 07:00:44;;;;;;;16.80;3.40;;;14.80;60.30;;;;;;4871143;29;20499;-78
2023/01/24 07:03:10;;;;;;;15.52;3.22;;;14.90;60.50;;;;;;4874808;29;20053;-77
2023/01/24 07:05:37;;;;;;;13.02;3.53;;;14.90;60.50;;;;;;4861410;29;20434;-78
2023/01/24 07:08:05;;;;;;;18.83;3.50;;;14.90;60.60;;;;;;4878967;29;20053;-78
2023/01/24 07:10:35;;;;;;;22.15;4.60;;;14.90;60.70;;;;;;4873591;29;20045;-78
2023/01/24 07:13:00;;;;;;;29.50;5.82;;;15.00;60.50;;;;;;4865593;29;20175;-77
2023/01/24 07:15:26;;;;;;;20.75;5.55;;;15.00;58.80;;;;;;4881088;29;20141;-76
2023/01/24 07:17:53;;;;;;;20.73;4.22;;;15.00;58.10;;;;;;4882076;29;20071;-76
2023/01/24 07:20:19;;;;;;;18.33;4.97;;;15.00;57.90;;;;;;4894681;29;20084;-75
2023/01/24 07:22:45;;;;;;;20.77;4.38;;;15.10;58.00;;;;;;4881364;29;20349;-77
2023/01/24 07:25:20;;;;;;;22.67;3.63;;;15.20;58.00;;;;;;4880596;29;20052;-75
2023/01/24 07:27:46;;;;;;;11.98;3.42;;;15.20;58.20;;;;;;4880908;29;20461;-76
2023/01/24 07:30:13;;;;;;;17.20;3.85;;;15.30;58.10;;;;;;4881179;29;20068;-76
2023/01/24 07:32:39;;;;;;;12.63;3.65;;;15.30;58.20;;;;;;4886213;29;20119;-75
2023/01/24 07:35:06;;;;;;;13.85;3.65;;;15.40;58.20;;;;;;4899373;29;20049;-75
2023/01/24 07:37:32;;;;;;;17.58;3.90;;;15.40;58.20;;;;;;4900430;29;20044;-75
2023/01/24 07:39:58;;;;;;;8.43;4.90;;;15.40;58.20;;;;;;4894873;29;20056;-77
2023/01/24 07:42:23;;;;;;;17.13;6.75;;;15.40;56.60;;;;;;4880787;29;20049;-75
2023/01/24 07:44:49;;;;;;;11.27;6.28;;;15.40;54.00;;;;;;4861952;29;20120;-75
2023/01/24 07:47:15;;;;;;;9.10;5.07;;;15.50;53.50;;;;;;4871556;29;20140;-74
2023/01/24 07:49:41;;;;;;;10.27;5.10;;;15.50;54.00;;;;;;4880052;29;20055;-75
2023/01/24 07:52:07;;;;;;;11.98;4.93;;;15.50;54.50;;;;;;4877439;29;20410;-75
2023/01/24 07:54:33;;;;;;;13.60;4.80;;;15.50;54.80;;;;;;4876603;29;20048;-76
2023/01/24 07:56:59;;;;;;;10.95;4.38;;;15.50;55.30;;;;;;4868877;29;20057;-79
2023/01/24 07:59:26;;;;;;;16.55;4.88;;;15.40;55.70;;;;;;4859441;29;20365;-78
2023/01/24 08:01:51;;;;;;;7.95;3.88;;;15.40;56.10;;;;;;4863611;29;20367;-80
2023/01/24 08:04:17;;;;;;;14.68;4.55;;;15.30;56.40;;;;;;4879846;29;20147;-79
2023/01/24 08:07:16;;;;;;;11.00;3.85;;;15.30;56.80;;;;;;4865835;29;20068;-77
2023/01/24 08:09:29;;;;;;;10.27;5.13;;;15.20;57.10;;;;;;4866509;29;20048;-79
2023/01/24 08:11:56;;;;;;;9.05;4.22;;;15.20;57.60;;;;;;4881234;29;20112;-77
2023/01/24 08:14:22;;;;;;;12.82;5.72;;;15.10;57.90;;;;;;4876227;29;20089;-80
2023/01/24 08:16:49;;;;;;;11.88;7.15;;;15.10;57.70;;;;;;4865012;29;20041;-76
2023/01/24 08:19:14;;;;;;;17.73;8.55;;;15.10;56.90;;;;;;4879659;29;20547;-81
2023/01/24 08:21:41;;;;;;;13.52;7.32;;;15.00;55.40;;;;;;4882757;29;20144;-81
2023/01/24 08:24:07;;;;;;;17.80;7.75;;;14.90;54.60;;;;;;4866062;29;20366;-80
2023/01/24 08:26:32;;;;;;;12.13;7.35;;;14.80;54.70;;;;;;4865068;29;20060;-79
2023/01/24 08:28:58;;;;;;;10.55;7.00;;;14.70;54.80;;;;;;4865195;29;20064;-81
2023/01/24 08:31:24;;;;;;;11.20;6.75;;;14.70;55.10;;;;;;4863696;29;20072;-79
2023/01/24 08:33:51;;;;;;;9.60;6.35;;;14.60;55.30;;;;;;4867047;29;20080;-79
2023/01/24 08:36:19;;;;;;;9.73;6.10;;;14.60;55.50;;;;;;4883155;29;20059;-79
2023/01/24 08:38:45;;;;;;;9.80;6.95;;;14.50;55.80;;;;;;4851837;29;20087;-80
2023/01/24 08:41:11;;;;;;;14.63;6.47;;;14.50;56.20;;;;;;4883915;29;20045;-79
2023/01/24 08:43:37;;;;;;;10.90;8.48;;;14.40;56.50;;;;;;4871233;29;20057;-80
2023/01/24 08:46:03;;;;;;;14.07;11.07;;;14.50;56.40;;;;;;4882564;29;20049;-79
2023/01/24 08:48:30;;;;;;;11.10;8.85;;;14.40;55.30;;;;;;4882798;29;20068;-80
2023/01/24 08:50:55;;;;;;;16.38;11.27;;;14.40;54.80;;;;;;4866304;29;20139;-80
2023/01/24 08:53:21;;;;;;;14.65;11.13;;;14.40;54.50;;;;;;4882621;29;20116;-80
2023/01/24 08:55:51;;;;;;;17.00;11.77;;;14.40;54.10;;;;;;4882324;29;20072;-78
2023/01/24 08:58:17;;;;;;;13.00;11.13;;;14.30;54.10;;;;;;4861401;29;20469;-78
2023/01/24 09:00:43;;;;;;;15.40;10.10;;;14.30;54.00;;;;;;4850539;29;20091;-76
2023/01/24 09:03:11;;;;;;;12.73;9.57;;;14.20;53.90;;;;;;4882643;29;20069;-79
2023/01/24 09:05:38;;;;;;;12.57;9.93;;;14.20;54.30;;;;;;4881845;29;20049;-79
2023/01/24 09:08:04;;;;;;;12.13;9.40;;;14.20;54.80;;;;;;4882570;29;20080;-81
2023/01/24 09:10:30;;;;;;;12.25;9.43;;;14.10;55.10;;;;;;4866123;29;20124;-79
2023/01/24 09:12:56;;;;;;;12.23;8.82;;;14.10;55.90;;;;;;4882063;29;20200;-78
2023/01/24 09:15:22;;;;;;;13.57;10.27;;;14.00;55.60;;;;;;4880880;29;20067;-80
2023/01/24 09:17:47;;;;;;;13.25;8.73;;;14.00;55.90;;;;;;4859227;29;20041;-79
2023/01/24 09:20:14;;;;;;;11.57;8.70;;;14.00;56.00;;;;;;4875157;29;20053;-79
2023/01/24 09:22:40;;;;;;;11.13;8.38;;;13.90;56.10;;;;;;4862476;29;20049;-80
2023/01/24 09:25:07;;;;;;;11.25;8.95;;;13.90;56.30;;;;;;4878783;29;20052;-80
2023/01/24 09:27:34;;;;;;;11.48;8.65;;;13.90;56.60;;;;;;4878675;29;20460;-80
2023/01/24 09:30:00;;;;;;;11.70;9.18;;;13.80;56.80;;;;;;4875784;29;20061;-78
2023/01/24 09:32:25;;;;;;;13.82;8.50;;;13.80;57.00;;;;;;4869306;29;20425;-80
2023/01/24 09:34:51;;;;;;;11.90;8.20;;;13.80;57.20;;;;;;4878383;29;20132;-81
2023/01/24 09:37:19;;;;;;;12.60;7.53;;;13.80;57.40;;;;;;4878781;29;20041;-80
2023/01/24 09:39:45;;;;;;;11.90;8.00;;;13.80;57.60;;;;;;4865627;29;20481;-82
2023/01/24 09:42:26;;;;;;;10.05;7.90;;;13.70;57.70;;;;;;4875009;29;20124;-81
2023/01/24 09:45:08;;;;;;;17.50;8.95;;;13.70;58.00;;;;;;4879756;29;20127;-80
2023/01/24 09:47:49;;;;;;;12.45;7.78;;;13.70;58.00;;;;;;4878902;29;20045;-83
2023/01/24 09:50:20;;;;;;;11.10;7.53;;;13.70;58.20;;;;;;4886981;29;20045;-80
2023/01/24 09:52:51;;;;;;;13.95;7.28;;;13.70;58.40;;;;;;4859676;29;20380;-80
2023/01/24 09:55:34;;;;;;;10.73;7.70;;;13.70;58.40;;;;;;4865474;29;20387;-82
2023/01/24 09:58:18;;;;;;;19.48;7.45;;;13.60;58.40;;;;;;4876639;29;20076;-83
2023/01/24 10:00:45;;;;;;;11.90;7.40;;;13.60;58.60;;;;;;4880374;29;20132;-79
2023/01/24 10:03:18;;;;;;;8.75;6.95;;;13.60;58.70;;;;;;4865256;29;20476;-81
2023/01/24 10:05:48;;;;;;;13.15;7.63;;;13.60;58.90;;;;;;4860148;29;20059;-81
2023/01/24 10:08:26;;;;;;;12.98;7.05;;;13.60;59.00;;;;;;4879897;29;20049;-81
2023/01/24 10:11:34;;;;;;;12.98;7.68;;;13.50;59.10;;;;;;4876991;29;20060;-90
2023/01/24 10:14:21;;;;;;;9.32;6.65;;;13.60;60.30;;;;;;4855748;29;20061;-83
2023/01/24 10:17:21;;;;;;;12.45;7.35;;;13.60;60.50;;;;;;4876939;29;20354;-77
2023/01/24 10:20:22;;;;;;;11.07;7.20;;;13.70;60.50;;;;;;4855239;29;20457;-82
2023/01/24 10:23:21;;;;;;;12.82;6.75;;;13.70;59.90;;;;;;4878749;29;20452;-78
2023/01/24 10:26:07;;;;;;;13.52;9.73;;;13.80;59.70;;;;;;4881856;29;20108;-81
2023/01/24 10:28:40;;;;;;;14.80;11.57;;;13.80;58.70;;;;;;4865025;29;20041;-79
2023/01/24 10:31:19;;;;;;;14.98;9.35;;;13.70;56.90;;;;;;4864946;29;20068;-77
2023/01/24 10:33:47;;;;;;;14.85;9.95;;;13.70;56.90;;;;;;4881792;29;20052;-76
2023/01/24 10:36:43;;;;;;;14.40;9.35;;;13.70;56.90;;;;;;4881652;29;20116;-77
2023/01/24 10:39:12;;;;;;;14.35;7.22;;;13.70;57.10;;;;;;4875651;29;20055;-77
2023/01/24 10:41:39;;;;;;;15.13;7.20;;;13.70;57.20;;;;;;4880702;29;20053;-77
2023/01/24 10:44:27;;;;;;;12.63;6.75;;;13.80;57.30;;;;;;4875160;29;20045;-76
2023/01/24 10:46:53;;;;;;;11.38;6.10;;;14.00;57.70;;;;;;4875635;29;20041;-76
2023/01/24 10:49:36;;;;;;;9.82;5.90;;;14.10;57.80;;;;;;4862126;29;20049;-76
2023/01/24 10:52:21;;;;;;;12.10;6.30;;;14.20;57.90;;;;;;4874443;29;20057;-76
2023/01/24 10:54:54;;;;;;;13.68;6.00;;;14.30;57.90;;;;;;4881282;29;20285;-76
2023/01/24 10:57:43;;;;;;;11.65;5.43;;;14.40;57.90;;;;;;4899293;29;20387;-79
2023/01/24 11:00:22;;;;;;;11.38;5.20;;;14.40;57.80;;;;;;4899900;29;20131;-79
2023/01/24 11:02:51;;;;;;;12.27;4.60;;;14.40;57.90;;;;;;4899585;29;20444;-79
2023/01/24 11:05:18;;;;;;;10.80;4.30;;;14.50;58.00;;;;;;4900098;29;20104;-78
2023/01/24 11:07:59;;;;;;;7.50;4.20;;;14.60;57.90;;;;;;4894750;29;20052;-79
2023/01/24 11:10:37;;;;;;;8.05;3.60;;;14.70;57.70;;;;;;4881298;29;20072;-78
2023/01/24 11:13:21;;;;;;;6.55;3.67;;;14.80;57.80;;;;;;4881211;29;20053;-79
2023/01/24 11:15:51;;;;;;;11.23;5.32;;;14.90;57.70;;;;;;4881132;29;20520;-78
2023/01/24 11:18:27;;;;;;;14.25;4.13;;;14.90;57.50;;;;;;4881258;29;20096;-83
2023/01/24 11:21:16;;;;;;;8.68;3.28;;;15.00;57.60;;;;;;4881652;29;20053;-80
2023/01/24 11:23:43;;;;;;;10.57;3.92;;;15.10;57.70;;;;;;4880066;29;20357;-79
2023/01/24 11:26:23;;;;;;;10.35;3.17;;;15.10;57.70;;;;;;4878967;29;20048;-79
2023/01/24 11:29:14;;;;;;;9.02;3.53;;;15.20;57.80;;;;;;4881061;29;20060;-79
2023/01/24 11:31:57;;;;;;;7.93;3.42;;;15.20;57.60;;;;;;4880664;29;20071;-78
2023/01/24 11:34:43;;;;;;;10.07;3.33;;;15.30;57.50;;;;;;4864184;29;20095;-79
2023/01/24 11:37:14;;;;;;;7.63;2.97;;;15.30;57.70;;;;;;4880710;29;20167;-79
2023/01/24 11:39:49;;;;;;;8.38;2.90;;;15.30;57.60;;;;;;4880669;29;20084;-79
2023/01/24 11:42:15;;;;;;;4.63;2.90;;;15.40;57.60;;;;;;4880263;29;20385;-79
2023/01/24 11:45:11;;;;;;;3.85;2.38;;;15.50;57.60;;;;;;4879576;29;20053;-78
2023/01/24 11:47:44;;;;;;;4.47;2.67;;;15.50;57.40;;;;;;4876632;29;20075;-79
2023/01/24 11:50:28;;;;;;;6.00;2.35;;;15.50;57.30;;;;;;4880865;29;20057;-79
2023/01/24 11:53:13;;;;;;;;;;;15.60;57.20;;;;;;4887406;29;20436;-79
2023/01/24 11:55:50;;;;;;;6.50;3.67;;;15.60;57.20;;;;;;4857424;29;19933;-77
2023/01/24 11:58:32;;;;;;;5.80;3.72;;;15.60;55.70;;;;;;4883009;29;20077;-79
2023/01/24 12:01:10;;;;;;;10.18;4.30;;;15.50;54.80;;;;;;4883797;29;20059;-81
2023/01/24 12:03:47;;;;;;;6.43;3.40;;;15.50;54.40;;;;;;4883111;29;20100;-81
2023/01/24 12:06:36;;;;;;;5.32;3.20;;;15.40;54.60;;;;;;4884425;29;20520;-78
2023/01/24 12:09:20;;;;;;;9.18;3.22;;;15.30;54.60;;;;;;4883849;29;20041;-83
2023/01/24 12:12:01;;;;;;;4.20;3.00;;;15.30;54.90;;;;;;4884021;29;20049;-79
2023/01/24 12:14:42;;;;;;;11.00;6.00;;;15.20;55.30;;;;;;4883015;29;20085;-80
2023/01/24 12:17:38;;;;;;;5.13;3.40;;;15.10;55.90;;;;;;4884375;29;20045;-77
2023/01/24 12:20:41;;;;;;;11.68;5.30;;;15.10;55.70;;;;;;4882994;29;20080;-81
2023/01/24 12:23:38;;;;;;;17.45;11.05;;;15.00;56.10;;;;;;4867353;29;20044;-82
2023/01/24 12:26:18;;;;;;;22.05;14.45;;;15.00;58.20;;;;;;4883969;29;20048;-83
2023/01/24 12:28:53;;;;;;;21.13;10.50;;;14.90;60.10;;;;;;4882738;29;20049;-78
2023/01/24 12:31:34;;;;;;;15.27;8.82;;;14.90;59.60;;;;;;4882408;29;20388;-82
2023/01/24 12:34:09;;;;;;;14.02;7.45;;;14.70;57.50;;;;;;4875529;29;20052;-80
2023/01/24 12:37:13;;;;;;;12.73;7.45;;;14.80;57.20;;;;;;4862887;29;20473;-80
2023/01/24 12:40:00;;;;;;;12.02;7.03;;;14.80;57.00;;;;;;4829486;29;20069;-78
2023/01/24 12:42:36;;;;;;;12.52;5.68;;;14.90;57.80;;;;;;4863306;29;20064;-77
2023/01/24 12:45:10;;;;;;;9.73;5.20;;;15.00;58.30;;;;;;4864711;29;20046;-82
2023/01/24 12:47:48;;;;;;;9.85;5.82;;;15.20;58.40;;;;;;4864150;29;20046;-80
2023/01/24 12:50:14;;;;;;;16.40;5.30;;;15.20;58.60;;;;;;4848613;29;20063;-81
2023/01/24 12:53:03;;;;;;;8.13;4.82;;;15.30;59.00;;;;;;4861522;29;20410;-82
2023/01/24 12:55:54;;;;;;;8.73;4.68;;;15.30;59.60;;;;;;4862697;29;20053;-82
2023/01/24 12:58:42;;;;;;;10.15;4.78;;;15.40;59.60;;;;;;4863971;29;20080;-78
2023/01/24 13:01:07;;;;;;;10.73;4.63;;;15.40;59.60;;;;;;4863765;29;20395;-78
2023/01/24 13:03:53;;;;;;;9.88;5.50;;;15.40;59.40;;;;;;4863461;29;20113;-78
2023/01/24 13:06:40;;;;;;;9.52;4.80;;;15.30;58.70;;;;;;4864951;29;20041;-80
2023/01/24 13:09:49;;;;;;;8.98;4.50;;;15.30;58.50;;;;;;4873530;29;20055;-80
2023/01/24 13:12:18;;;;;;;9.75;5.03;;;15.30;58.50;;;;;;4867068;29;20415;-79
2023/01/24 13:14:50;;;;;;;9.55;4.25;;;15.20;58.70;;;;;;4866654;29;20112;-78
2023/01/24 13:17:38;;;;;;;8.82;4.40;;;15.20;59.10;;;;;;4883079;29;20456;-80
2023/01/24 13:20:32;;;;;;;8.43;4.10;;;15.20;59.10;;;;;;4866568;29;20112;-77
2023/01/24 13:23:32;;;;;;;7.25;3.90;;;15.10;59.20;;;;;;4882720;29;20045;-78
2023/01/24 13:26:28;;;;;;;10.15;4.15;;;15.10;59.30;;;;;;4881409;29;20056;-78
2023/01/24 13:29:19;;;;;;;10.40;4.22;;;15.00;59.70;;;;;;4882394;29;20472;-78
2023/01/24 13:32:08;;;;;;;8.13;3.85;;;14.90;59.90;;;;;;4862256;29;20053;-77
2023/01/24 13:34:43;;;;;;;5.03;3.75;;;14.90;60.10;;;;;;4881215;29;20056;-78
2023/01/24 13:37:19;;;;;;;13.88;8.57;;;14.90;60.50;;;;;;4879761;29;20096;-76
2023/01/24 13:39:46;;;;;;;11.98;7.13;;;14.90;58.70;;;;;;4865921;29;20045;-74
2023/01/24 13:42:23;;;;;;;13.05;8.35;;;14.80;58.10;;;;;;4882656;29;20048;-82
2023/01/24 13:44:50;;;;;;;10.02;8.82;;;14.80;57.10;;;;;;4881950;29;20369;-79
2023/01/24 13:47:16;;;;;;;12.32;8.02;;;14.70;55.50;;;;;;4881236;29;20037;-80
2023/01/24 13:50:03;;;;;;;16.15;8.45;;;14.70;55.00;;;;;;4881296;29;20120;-83
2023/01/24 13:52:32;;;;;;;13.52;6.75;;;14.60;54.40;;;;;;4871227;29;20474;-80
2023/01/24 13:55:24;;;;;;;9.52;6.32;;;14.60;53.50;;;;;;4885763;29;20053;-82
2023/01/24 13:58:09;;;;;;;7.78;5.13;;;14.60;53.70;;;;;;4890486;29;20086;-80
2023/01/24 14:00:47;;;;;;;10.10;4.97;;;14.70;53.60;;;;;;4886323;29;20438;-80
2023/01/24 14:03:23;;;;;;;11.23;4.95;;;14.90;54.00;;;;;;4889995;29;20436;-81
2023/01/24 14:06:03;;;;;;;9.52;4.35;;;14.90;54.30;;;;;;4876410;29;20135;-78
2023/01/24 14:08:29;;;;;;;10.10;4.53;;;15.00;54.60;;;;;;4862386;29;20048;-79
2023/01/24 14:10:55;;;;;;;10.82;3.97;;;15.10;54.90;;;;;;4883061;29;20060;-78
2023/01/24 14:13:42;;;;;;;11.00;4.05;;;15.10;55.10;;;;;;4889683;29;20056;-83
2023/01/24 14:16:23;;;;;;;10.38;4.05;;;15.10;55.40;;;;;;4880320;29;20049;-80
2023/01/24 14:19:12;;;;;;;7.22;3.63;;;15.20;55.60;;;;;;4871087;29;20496;-81
2023/01/24 14:21:52;;;;;;;8.27;3.60;;;15.20;55.80;;;;;;4878541;29;20095;-80
2023/01/24 14:24:22;;;;;;;20.05;4.68;;;15.20;56.00;;;;;;4877523;29;20049;-79
2023/01/24 14:26:56;;;;;;;17.02;4.47;;;15.20;56.20;;;;;;4873346;29;20045;-78
2023/01/24 14:29:34;;;;;;;10.38;4.05;;;15.30;56.40;;;;;;4879484;29;20048;-80
2023/01/24 14:32:02;;;;;;;16.73;4.55;;;15.20;56.80;;;;;;4867762;29;20045;-80
2023/01/24 14:34:39;;;;;;;18.67;4.00;;;15.30;57.00;;;;;;4880931;29;20113;-79
2023/01/24 14:37:16;;;;;;;18.25;3.63;;;15.40;57.40;;;;;;4871580;29;20084;-80
2023/01/24 14:39:42;;;;;;;15.88;4.03;;;15.50;57.90;;;;;;4881519;29;20360;-81
2023/01/24 14:42:14;;;;;;;14.48;3.70;;;15.60;57.30;;;;;;4881427;29;20029;-80
2023/01/24 14:44:56;;;;;;;17.10;5.35;;;15.60;57.20;;;;;;4850129;29;20053;-75
2023/01/24 14:47:27;;;;;;;12.18;3.85;;;15.20;55.50;;;;;;4875031;29;20049;-79
2023/01/24 14:49:55;;;;;;;17.92;4.32;;;15.40;57.70;;;;;;4881301;29;20128;-77
2023/01/24 14:52:37;;;;;;;20.30;4.18;;;15.50;58.20;;;;;;4881378;29;20037;-80
2023/01/24 14:55:30;;;;;;;17.92;4.75;;;15.60;58.20;;;;;;4880832;29;20440;-76
2023/01/24 14:58:11;;;;;;;16.05;4.28;;;15.70;58.30;;;;;;4881064;29;20051;-79
2023/01/24 15:00:50;;;;;;;15.18;4.55;;;15.70;58.10;;;;;;4875987;29;20132;-88
2023/01/24 15:03:19;;;;;;;10.60;4.82;;;15.80;58.10;;;;;;4880118;29;20342;-85
2023/01/24 15:05:51;;;;;;;18.08;3.78;;;15.80;58.10;;;;;;4848335;29;20131;-82
2023/01/24 15:08:17;;;;;;;17.60;4.10;;;15.80;58.10;;;;;;4848769;29;20044;-83
2023/01/24 15:10:51;;;;;;;18.92;4.10;;;15.90;58.40;;;;;;4861935;29;20042;-83
2023/01/24 15:13:24;;;;;;;18.55;4.65;;;15.90;58.50;;;;;;4845877;29;20132;-80
2023/01/24 15:15:50;;;;;;;16.13;3.72;;;15.90;58.80;;;;;;4846277;29;20049;-79
2023/01/24 15:18:36;;;;;;;13.25;4.82;;;15.90;58.90;;;;;;4861491;29;20056;-81
2023/01/24 15:21:21;;;;;;;24.35;5.18;;;15.90;59.40;;;;;;4861683;29;20041;-80
2023/01/24 15:23:52;;;;;;;20.40;7.03;;;15.90;59.70;;;;;;4846510;29;20057;-80
2023/01/24 15:45:47;;;;;;;18.25;4.80;;;15.90;61.80;;;;;;4891214;29;20061;-77
2023/01/24 15:48:21;;;;;;;18.15;5.75;;;16.00;61.80;;;;;;4888672;29;20528;-75
2023/01/24 15:51:11;;;;;;;16.73;5.13;;;16.00;62.00;;;;;;4890724;29;20040;-77
2023/01/24 15:53:41;;;;;;;9.95;4.63;;;15.90;62.10;;;;;;4903057;29;20048;-79
2023/01/24 15:56:19;;;;;;;14.15;4.95;;;15.90;62.20;;;;;;4871180;29;20056;-75
2023/01/24 15:58:47;;;;;;;11.32;4.70;;;15.90;62.60;;;;;;4903046;29;20036;-74
2023/01/24 16:01:13;;;;;;;19.45;4.88;;;15.90;62.60;;;;;;4903034;29;20347;-74
2023/01/24 16:03:38;;;;;;;17.30;4.90;;;15.90;62.70;;;;;;4903201;29;20062;-75
2023/01/24 16:06:04;;;;;;;13.57;5.03;;;15.90;62.70;;;;;;4902983;29;20053;-74
2023/01/24 16:08:30;;;;;;;18.67;5.47;;;15.90;62.80;;;;;;4901869;29;20077;-75
2023/01/24 16:10:58;;;;;;;19.45;4.72;;;15.80;62.80;;;;;;4902848;29;20060;-74
2023/01/24 16:13:39;;;;;;;25.52;6.28;;;15.70;62.90;;;;;;4903107;29;20051;-75
2023/01/24 16:16:07;;;;;;;15.73;5.18;;;15.70;63.30;;;;;;4883683;29;20052;-75
2023/01/24 16:18:33;;;;;;;14.02;4.80;;;15.70;63.20;;;;;;4900602;29;20364;-73
2023/01/24 16:20:59;;;;;;;21.85;5.43;;;15.70;63.30;;;;;;4902947;29;20071;-75
2023/01/24 16:23:26;;;;;;;18.35;5.53;;;15.70;63.30;;;;;;4902400;29;20041;-73
2023/01/24 16:25:54;;;;;;;16.88;4.95;;;15.60;63.20;;;;;;4902694;29;20052;-73
2023/01/24 16:28:27;;;;;;;13.68;4.40;;;15.60;63.10;;;;;;4885986;29;20048;-72
2023/01/24 16:30:59;;;;;;;21.60;5.60;;;15.60;63.00;;;;;;4902304;29;20079;-73
2023/01/24 16:33:24;;;;;;;14.88;4.93;;;15.60;63.10;;;;;;4902657;29;20281;-72
2023/01/24 16:35:50;;;;;;;12.63;4.53;;;15.60;63.30;;;;;;4902262;29;20136;-72
2023/01/24 16:38:16;;;;;;;18.42;5.68;;;15.60;63.50;;;;;;4901409;29;20053;-72
2023/01/24 16:40:48;;;;;;;20.33;4.72;;;15.50;63.60;;;;;;4871075;29;20063;-74
2023/01/24 16:43:21;;;;;;;13.60;4.28;;;15.50;63.30;;;;;;4901762;29;20052;-74
2023/01/24 16:45:49;;;;;;;15.38;4.70;;;15.40;63.60;;;;;;4902167;29;20052;-73
2023/01/24 16:48:15;;;;;;;12.93;4.97;;;15.30;62.30;;;;;;4896189;29;20184;-76
2023/01/24 16:50:43;;;;;;;16.58;5.07;;;15.30;63.20;;;;;;4901828;29;20203;-76
2023/01/24 16:53:09;;;;;;;22.48;5.28;;;15.30;63.40;;;;;;4902241;29;20127;-75
2023/01/24 16:55:37;;;;;;;17.15;5.25;;;15.30;63.50;;;;;;4899980;29;20040;-72
2023/01/24 16:58:05;;;;;;;12.90;5.90;;;15.30;63.30;;;;;;4899760;29;20068;-73
2023/01/24 17:00:31;;;;;;;17.88;8.63;;;15.30;63.10;;;;;;4900676;29;20059;-73
2023/01/24 17:02:59;;;;;;;18.33;8.63;;;15.30;61.10;;;;;;4901746;29;20041;-75
2023/01/24 17:05:27;;;;;;;18.60;8.48;;;15.30;59.30;;;;;;4901706;29;20383;-74
2023/01/24 17:07:54;;;;;;;17.58;7.15;;;15.20;58.60;;;;;;4901971;29;20055;-74